Hdms Esbern Snare — OUFB — position and weather

sailwx.info

Track history (hours):
 
Tides and Currents Weather Stations Pressure Air Temp Water Temp Dewpoint Dewpoint Depression Visibility Wind Speed Wind Dir Waves Ship Positions

Hdms Esbern Snare

Last reported at 2014-Dec-18 00:09 UTC. Time now 2014-Dec-18 00:54 UTC.
Position N 54°12' E 004°60'.

Length 137 m.

Type: Military. MMSI: 36699999.

Date/timePositionNaut miles runAvg speedWind from/ knotsBaromVisibWave heightAir tempDewpointWater temp
2014-Dec-18 00:09N 54°12' E 004°60'1015.7
2014-Dec-17 23:33N 54°04' E 004°49'16914.8
2014-Dec-17 12:10N 51°39' E 002°27'1115.6
2014-Dec-17 11:29N 51°31' E 002°16'1415.5
2014-Dec-17 10:34N 51°18' E 002°07'1414.4
2014-Dec-17 09:34N 51°08' E 001°50'1615.5
2014-Dec-17 08:33N 50°58' E 001°31'  
2014-Dec-10 04:03N 35°29' E 024°10'6 8.5
2014-Dec-10 03:23N 35°29' E 024°17'  
Track history (hours):
 
Tides and Currents Weather Stations Pressure Air Temp Water Temp Dewpoint Dewpoint Depression Visibility Wind Speed Wind Dir Waves Ship Positions

Hdms Esbern Snare

Last reported at 2014-Dec-18 00:09 UTC. Time now 2014-Dec-18 00:54 UTC.
Position N 54°12' E 004°60'.

Length 137 m.

Type: Military. MMSI: 36699999.

Date/timePositionNaut miles runAvg speedWind from/ knotsBaromVisibWave heightAir tempDewpointWater temp
2014-Dec-18 00:09N 54°12' E 004°60'1015.7
2014-Dec-17 23:33N 54°04' E 004°49'16914.8
2014-Dec-17 12:10N 51°39' E 002°27'1115.6
2014-Dec-17 11:29N 51°31' E 002°16'1415.5
2014-Dec-17 10:34N 51°18' E 002°07'1414.4
2014-Dec-17 09:34N 51°08' E 001°50'1615.5
2014-Dec-17 08:33N 50°58' E 001°31'  
2014-Dec-10 04:03N 35°29' E 024°10'6 8.5
2014-Dec-10 03:23N 35°29' E 024°17'  

Dump ship's entire track history